sensor_id;sensor_type;location;lat;lon;timestamp;temperature;humidity
35970;DHT22;22448;51.298;6.430;2023-06-26T00:01:33;20.80;99.90
35970;DHT22;22448;51.298;6.430;2023-06-26T00:04:01;20.80;99.90
35970;DHT22;22448;51.298;6.430;2023-06-26T00:06:28;20.70;99.90
35970;DHT22;22448;51.298;6.430;2023-06-26T00:08:56;20.70;99.90
35970;DHT22;22448;51.298;6.430;2023-06-26T00:11:24;20.70;99.90
35970;DHT22;22448;51.298;6.430;2023-06-26T00:13:51;20.60;99.90
35970;DHT22;22448;51.298;6.430;2023-06-26T00:16:18;20.60;99.90
35970;DHT22;22448;51.298;6.430;2023-06-26T00:18:45;20.60;99.90
35970;DHT22;22448;51.298;6.430;2023-06-26T00:21:12;20.60;99.90
35970;DHT22;22448;51.298;6.430;2023-06-26T00:23:39;20.50;99.90
35970;DHT22;22448;51.298;6.430;2023-06-26T00:26:06;20.50;99.90
35970;DHT22;22448;51.298;6.430;2023-06-26T00:28:33;20.40;99.90
35970;DHT22;22448;51.298;6.430;2023-06-26T00:31:00;20.40;99.90
35970;DHT22;22448;51.298;6.430;2023-06-26T00:33:28;20.40;99.90
35970;DHT22;22448;51.298;6.430;2023-06-26T00:35:56;20.40;99.90
35970;DHT22;22448;51.298;6.430;2023-06-26T00:38:23;20.40;99.90
35970;DHT22;22448;51.298;6.430;2023-06-26T00:40:50;20.30;99.90
35970;DHT22;22448;51.298;6.430;2023-06-26T00:43:20;20.40;99.90
35970;DHT22;22448;51.298;6.430;2023-06-26T00:45:48;20.30;99.90
35970;DHT22;22448;51.298;6.430;2023-06-26T00:48:15;20.30;99.90
35970;DHT22;22448;51.298;6.430;2023-06-26T00:50:42;20.20;99.90
35970;DHT22;22448;51.298;6.430;2023-06-26T00:53:11;20.20;99.90
35970;DHT22;22448;51.298;6.430;2023-06-26T00:55:38;20.20;99.90
35970;DHT22;22448;51.298;6.430;2023-06-26T00:58:05;20.20;99.90
35970;DHT22;22448;51.298;6.430;2023-06-26T01:00:32;20.20;99.90
35970;DHT22;22448;51.298;6.430;2023-06-26T01:03:00;20.10;99.90
35970;DHT22;22448;51.298;6.430;2023-06-26T01:05:28;20.10;99.90
35970;DHT22;22448;51.298;6.430;2023-06-26T01:07:57;20.10;99.90
35970;DHT22;22448;51.298;6.430;2023-06-26T01:10:25;20.10;99.90
35970;DHT22;22448;51.298;6.430;2023-06-26T01:12:54;20.10;99.90
35970;DHT22;22448;51.298;6.430;2023-06-26T01:15:22;20.10;99.90
35970;DHT22;22448;51.298;6.430;2023-06-26T01:17:51;20.00;99.90
35970;DHT22;22448;51.298;6.430;2023-06-26T01:20:19;20.00;99.90
35970;DHT22;22448;51.298;6.430;2023-06-26T01:23:05;20.00;99.90
35970;DHT22;22448;51.298;6.430;2023-06-26T01:25:54;20.00;99.90
35970;DHT22;22448;51.298;6.430;2023-06-26T01:28:24;20.00;99.90
35970;DHT22;22448;51.298;6.430;2023-06-26T01:30:52;19.90;99.90
35970;DHT22;22448;51.298;6.430;2023-06-26T01:33:20;19.90;99.90
35970;DHT22;22448;51.298;6.430;2023-06-26T01:35:51;19.80;99.90
35970;DHT22;22448;51.298;6.430;2023-06-26T01:38:20;19.80;99.90
35970;DHT22;22448;51.298;6.430;2023-06-26T01:40:48;19.80;99.90
35970;DHT22;22448;51.298;6.430;2023-06-26T01:43:29;19.80;99.90
35970;DHT22;22448;51.298;6.430;2023-06-26T01:46:04;19.80;99.90
35970;DHT22;22448;51.298;6.430;2023-06-26T01:48:59;19.90;99.90
35970;DHT22;22448;51.298;6.430;2023-06-26T01:51:37;19.90;99.90
35970;DHT22;22448;51.298;6.430;2023-06-26T01:54:12;19.90;99.90
35970;DHT22;22448;51.298;6.430;2023-06-26T01:56:41;19.90;99.90
35970;DHT22;22448;51.298;6.430;2023-06-26T01:59:10;19.90;99.90
35970;DHT22;22448;51.298;6.430;2023-06-26T02:01:38;19.90;99.90
35970;DHT22;22448;51.298;6.430;2023-06-26T02:04:05;19.90;99.90
35970;DHT22;22448;51.298;6.430;2023-06-26T02:06:32;19.90;99.90
35970;DHT22;22448;51.298;6.430;2023-06-26T02:08:59;19.80;99.90
35970;DHT22;22448;51.298;6.430;2023-06-26T02:11:27;19.80;99.90
35970;DHT22;22448;51.298;6.430;2023-06-26T02:13:54;19.70;99.90
35970;DHT22;22448;51.298;6.430;2023-06-26T02:16:21;19.70;99.90
35970;DHT22;22448;51.298;6.430;2023-06-26T02:18:48;19.70;99.90
35970;DHT22;22448;51.298;6.430;2023-06-26T02:21:16;19.70;99.90
35970;DHT22;22448;51.298;6.430;2023-06-26T02:23:43;19.60;99.90
35970;DHT22;22448;51.298;6.430;2023-06-26T02:26:10;19.60;99.90
35970;DHT22;22448;51.298;6.430;2023-06-26T02:28:37;19.60;99.90
35970;DHT22;22448;51.298;6.430;2023-06-26T02:31:04;19.60;99.90
35970;DHT22;22448;51.298;6.430;2023-06-26T02:33:32;19.60;99.90
35970;DHT22;22448;51.298;6.430;2023-06-26T02:35:59;19.60;99.90
35970;DHT22;22448;51.298;6.430;2023-06-26T02:38:26;19.60;99.90
35970;DHT22;22448;51.298;6.430;2023-06-26T02:40:53;19.60;99.90
35970;DHT22;22448;51.298;6.430;2023-06-26T02:43:20;19.60;99.90
35970;DHT22;22448;51.298;6.430;2023-06-26T02:45:47;19.60;99.90
35970;DHT22;22448;51.298;6.430;2023-06-26T02:48:14;19.60;99.90
35970;DHT22;22448;51.298;6.430;2023-06-26T02:50:42;19.60;99.90
35970;DHT22;22448;51.298;6.430;2023-06-26T02:53:14;19.60;99.90
35970;DHT22;22448;51.298;6.430;2023-06-26T02:55:43;19.60;99.90
35970;DHT22;22448;51.298;6.430;2023-06-26T02:58:10;19.60;99.90
35970;DHT22;22448;51.298;6.430;2023-06-26T03:00:38;19.60;99.90
35970;DHT22;22448;51.298;6.430;2023-06-26T03:03:12;19.60;99.90
35970;DHT22;22448;51.298;6.430;2023-06-26T03:05:39;19.60;99.90
35970;DHT22;22448;51.298;6.430;2023-06-26T03:08:06;19.70;99.90
35970;DHT22;22448;51.298;6.430;2023-06-26T03:10:33;19.70;99.90
35970;DHT22;22448;51.298;6.430;2023-06-26T03:13:00;19.70;99.90
35970;DHT22;22448;51.298;6.430;2023-06-26T03:15:28;19.70;99.90
35970;DHT22;22448;51.298;6.430;2023-06-26T03:17:55;19.70;99.90
35970;DHT22;22448;51.298;6.430;2023-06-26T03:20:25;19.80;99.90
35970;DHT22;22448;51.298;6.430;2023-06-26T03:22:54;19.80;99.90
35970;DHT22;22448;51.298;6.430;2023-06-26T03:25:22;19.80;99.90
35970;DHT22;22448;51.298;6.430;2023-06-26T03:27:56;19.80;99.90
35970;DHT22;22448;51.298;6.430;2023-06-26T03:30:25;19.70;99.90
35970;DHT22;22448;51.298;6.430;2023-06-26T03:32:54;19.70;99.90
35970;DHT22;22448;51.298;6.430;2023-06-26T03:35:21;19.70;99.90
35970;DHT22;22448;51.298;6.430;2023-06-26T03:37:48;19.80;99.90
35970;DHT22;22448;51.298;6.430;2023-06-26T03:40:16;19.80;99.90
35970;DHT22;22448;51.298;6.430;2023-06-26T03:42:43;19.80;99.90
35970;DHT22;22448;51.298;6.430;2023-06-26T03:45:10;19.90;99.90
35970;DHT22;22448;51.298;6.430;2023-06-26T03:47:38;19.90;99.90
35970;DHT22;22448;51.298;6.430;2023-06-26T03:50:06;20.00;99.90
35970;DHT22;22448;51.298;6.430;2023-06-26T03:52:34;20.00;99.90
35970;DHT22;22448;51.298;6.430;2023-06-26T03:55:01;20.10;99.90
35970;DHT22;22448;51.298;6.430;2023-06-26T03:57:28;20.10;99.90
35970;DHT22;22448;51.298;6.430;2023-06-26T03:59:55;20.10;99.90
35970;DHT22;22448;51.298;6.430;2023-06-26T04:02:22;20.10;99.90
35970;DHT22;22448;51.298;6.430;2023-06-26T04:04:49;20.10;99.90
35970;DHT22;22448;51.298;6.430;2023-06-26T04:07:17;20.10;99.90
35970;DHT22;22448;51.298;6.430;2023-06-26T04:09:44;20.20;99.90
35970;DHT22;22448;51.298;6.430;2023-06-26T04:12:11;20.20;99.90
35970;DHT22;22448;51.298;6.430;2023-06-26T04:14:38;20.30;99.90
35970;DHT22;22448;51.298;6.430;2023-06-26T04:17:06;20.30;99.90
35970;DHT22;22448;51.298;6.430;2023-06-26T04:19:33;20.30;99.90
35970;DHT22;22448;51.298;6.430;2023-06-26T04:22:01;20.40;99.90
35970;DHT22;22448;51.298;6.430;2023-06-26T04:24:28;20.40;99.90
35970;DHT22;22448;51.298;6.430;2023-06-26T04:26:55;20.40;99.90
35970;DHT22;22448;51.298;6.430;2023-06-26T04:29:26;20.40;99.90
35970;DHT22;22448;51.298;6.430;2023-06-26T04:31:53;20.40;99.90
35970;DHT22;22448;51.298;6.430;2023-06-26T04:34:26;20.40;99.90
35970;DHT22;22448;51.298;6.430;2023-06-26T04:36:54;20.50;99.90
35970;DHT22;22448;51.298;6.430;2023-06-26T04:39:21;20.40;99.90
35970;DHT22;22448;51.298;6.430;2023-06-26T04:41:48;20.50;99.90
35970;DHT22;22448;51.298;6.430;2023-06-26T04:44:16;20.60;99.90
35970;DHT22;22448;51.298;6.430;2023-06-26T04:46:43;20.60;99.90
35970;DHT22;22448;51.298;6.430;2023-06-26T04:49:10;20.70;99.90
35970;DHT22;22448;51.298;6.430;2023-06-26T04:51:37;20.70;99.90
35970;DHT22;22448;51.298;6.430;2023-06-26T04:54:07;20.70;99.90
35970;DHT22;22448;51.298;6.430;2023-06-26T04:56:35;20.80;99.90
35970;DHT22;22448;51.298;6.430;2023-06-26T04:59:02;21.00;99.90
35970;DHT22;22448;51.298;6.430;2023-06-26T05:01:29;21.60;99.90
35970;DHT22;22448;51.298;6.430;2023-06-26T05:03:57;21.60;99.90
35970;DHT22;22448;51.298;6.430;2023-06-26T05:06:24;21.50;99.90
35970;DHT22;22448;51.298;6.430;2023-06-26T05:08:51;21.40;99.90
35970;DHT22;22448;51.298;6.430;2023-06-26T05:11:18;21.20;99.90
35970;DHT22;22448;51.298;6.430;2023-06-26T05:13:45;21.00;99.90
35970;DHT22;22448;51.298;6.430;2023-06-26T05:16:12;20.90;99.90
35970;DHT22;22448;51.298;6.430;2023-06-26T05:18:39;20.80;99.90
35970;DHT22;22448;51.298;6.430;2023-06-26T05:21:07;20.80;99.90
35970;DHT22;22448;51.298;6.430;2023-06-26T05:23:34;20.80;99.90
35970;DHT22;22448;51.298;6.430;2023-06-26T05:26:02;20.80;99.90
35970;DHT22;22448;51.298;6.430;2023-06-26T05:28:30;21.90;99.90
35970;DHT22;22448;51.298;6.430;2023-06-26T05:31:00;23.30;99.90
35970;DHT22;22448;51.298;6.430;2023-06-26T05:33:27;24.70;99.90
35970;DHT22;22448;51.298;6.430;2023-06-26T05:35:55;25.00;99.90
35970;DHT22;22448;51.298;6.430;2023-06-26T05:38:22;24.40;99.90
35970;DHT22;22448;51.298;6.430;2023-06-26T05:40:50;24.50;99.90
35970;DHT22;22448;51.298;6.430;2023-06-26T05:43:17;23.90;99.90
35970;DHT22;22448;51.298;6.430;2023-06-26T05:45:54;24.60;99.90
35970;DHT22;22448;51.298;6.430;2023-06-26T05:48:21;25.90;99.90
35970;DHT22;22448;51.298;6.430;2023-06-26T05:50:48;25.60;99.90
35970;DHT22;22448;51.298;6.430;2023-06-26T05:53:16;24.70;99.90
35970;DHT22;22448;51.298;6.430;2023-06-26T05:55:43;24.20;99.90
35970;DHT22;22448;51.298;6.430;2023-06-26T05:58:11;24.60;99.90
35970;DHT22;22448;51.298;6.430;2023-06-26T06:00:42;25.60;99.90
35970;DHT22;22448;51.298;6.430;2023-06-26T06:03:10;27.30;99.90
35970;DHT22;22448;51.298;6.430;2023-06-26T06:05:38;28.80;99.90
35970;DHT22;22448;51.298;6.430;2023-06-26T06:08:05;29.70;98.30
35970;DHT22;22448;51.298;6.430;2023-06-26T06:10:32;30.60;96.40
35970;DHT22;22448;51.298;6.430;2023-06-26T06:12:59;31.20;95.20
35970;DHT22;22448;51.298;6.430;2023-06-26T06:15:26;31.70;94.20
35970;DHT22;22448;51.298;6.430;2023-06-26T06:17:56;32.20;93.30
35970;DHT22;22448;51.298;6.430;2023-06-26T06:20:24;33.10;92.20
35970;DHT22;22448;51.298;6.430;2023-06-26T06:22:51;33.00;92.00
35970;DHT22;22448;51.298;6.430;2023-06-26T06:25:17;33.20;91.30
35970;DHT22;22448;51.298;6.430;2023-06-26T06:27:44;33.40;91.10
35970;DHT22;22448;51.298;6.430;2023-06-26T06:30:12;30.80;91.70
35970;DHT22;22448;51.298;6.430;2023-06-26T06:32:39;31.40;92.70
35970;DHT22;22448;51.298;6.430;2023-06-26T06:35:06;32.20;91.90
35970;DHT22;22448;51.298;6.430;2023-06-26T06:37:38;33.00;91.40
35970;DHT22;22448;51.298;6.430;2023-06-26T06:40:06;32.40;90.70
35970;DHT22;22448;51.298;6.430;2023-06-26T06:42:33;31.40;92.20
35970;DHT22;22448;51.298;6.430;2023-06-26T06:45:02;31.20;92.40
35970;DHT22;22448;51.298;6.430;2023-06-26T06:47:31;30.80;92.70
35970;DHT22;22448;51.298;6.430;2023-06-26T06:49:59;31.80;92.60
35970;DHT22;22448;51.298;6.430;2023-06-26T06:52:30;30.10;92.90
35970;DHT22;22448;51.298;6.430;2023-06-26T06:54:58;31.60;92.90
35970;DHT22;22448;51.298;6.430;2023-06-26T06:57:33;32.20;92.00
35970;DHT22;22448;51.298;6.430;2023-06-26T07:00:06;33.10;91.70
35970;DHT22;22448;51.298;6.430;2023-06-26T07:02:39;34.00;90.80
35970;DHT22;22448;51.298;6.430;2023-06-26T07:05:07;34.60;90.50
35970;DHT22;22448;51.298;6.430;2023-06-26T07:07:35;34.90;90.00
35970;DHT22;22448;51.298;6.430;2023-06-26T07:10:07;34.40;89.30
35970;DHT22;22448;51.298;6.430;2023-06-26T07:12:35;34.40;90.30
35970;DHT22;22448;51.298;6.430;2023-06-26T07:15:04;34.70;89.60
35970;DHT22;22448;51.298;6.430;2023-06-26T07:17:34;34.50;88.30
35970;DHT22;22448;51.298;6.430;2023-06-26T07:20:02;34.70;88.10
35970;DHT22;22448;51.298;6.430;2023-06-26T07:22:34;34.90;87.80
35970;DHT22;22448;51.298;6.430;2023-06-26T07:25:01;34.00;87.60
35970;DHT22;22448;51.298;6.430;2023-06-26T07:27:28;33.60;88.20
35970;DHT22;22448;51.298;6.430;2023-06-26T07:29:55;34.10;88.20
35970;DHT22;22448;51.298;6.430;2023-06-26T07:32:22;33.90;87.80
35970;DHT22;22448;51.298;6.430;2023-06-26T07:34:49;33.60;88.10
35970;DHT22;22448;51.298;6.430;2023-06-26T07:37:16;31.60;89.50
35970;DHT22;22448;51.298;6.430;2023-06-26T07:39:44;30.00;91.30
35970;DHT22;22448;51.298;6.430;2023-06-26T07:42:11;28.60;93.40
35970;DHT22;22448;51.298;6.430;2023-06-26T07:44:38;28.10;94.80
35970;DHT22;22448;51.298;6.430;2023-06-26T07:47:05;30.10;94.00
35970;DHT22;22448;51.298;6.430;2023-06-26T07:49:32;30.80;92.60
35970;DHT22;22448;51.298;6.430;2023-06-26T07:51:59;30.80;92.00
35970;DHT22;22448;51.298;6.430;2023-06-26T07:54:26;30.30;92.70
35970;DHT22;22448;51.298;6.430;2023-06-26T07:57:01;30.30;92.20
35970;DHT22;22448;51.298;6.430;2023-06-26T07:59:29;29.20;93.00
35970;DHT22;22448;51.298;6.430;2023-06-26T08:01:57;27.90;93.90
35970;DHT22;22448;51.298;6.430;2023-06-26T08:04:26;26.90;95.00
35970;DHT22;22448;51.298;6.430;2023-06-26T08:06:56;26.00;97.00
35970;DHT22;22448;51.298;6.430;2023-06-26T08:09:25;25.40;99.20
35970;DHT22;22448;51.298;6.430;2023-06-26T08:11:53;25.10;99.90
35970;DHT22;22448;51.298;6.430;2023-06-26T08:14:20;24.70;99.90
35970;DHT22;22448;51.298;6.430;2023-06-26T08:16:48;24.70;99.90
35970;DHT22;22448;51.298;6.430;2023-06-26T08:19:16;24.60;99.90
35970;DHT22;22448;51.298;6.430;2023-06-26T08:21:44;25.00;99.90
35970;DHT22;22448;51.298;6.430;2023-06-26T08:24:12;25.10;99.90
35970;DHT22;22448;51.298;6.430;2023-06-26T08:26:46;25.20;99.90
35970;DHT22;22448;51.298;6.430;2023-06-26T08:29:13;26.20;99.90
35970;DHT22;22448;51.298;6.430;2023-06-26T08:31:41;27.00;99.50
35970;DHT22;22448;51.298;6.430;2023-06-26T08:34:09;27.40;97.80
35970;DHT22;22448;51.298;6.430;2023-06-26T08:36:36;27.90;97.20
35970;DHT22;22448;51.298;6.430;2023-06-26T08:39:03;28.30;96.00
35970;DHT22;22448;51.298;6.430;2023-06-26T08:41:32;28.00;95.90
35970;DHT22;22448;51.298;6.430;2023-06-26T08:43:59;28.20;96.30
35970;DHT22;22448;51.298;6.430;2023-06-26T08:46:28;27.90;96.00
35970;DHT22;22448;51.298;6.430;2023-06-26T08:48:57;27.50;97.00
35970;DHT22;22448;51.298;6.430;2023-06-26T08:51:28;27.10;97.90
35970;DHT22;22448;51.298;6.430;2023-06-26T08:54:01;27.00;98.80
35970;DHT22;22448;51.298;6.430;2023-06-26T08:56:32;27.10;97.90
35970;DHT22;22448;51.298;6.430;2023-06-26T08:59:02;27.00;97.70
35970;DHT22;22448;51.298;6.430;2023-06-26T09:01:30;27.00;98.40
35970;DHT22;22448;51.298;6.430;2023-06-26T09:03:58;27.10;98.40
35970;DHT22;22448;51.298;6.430;2023-06-26T09:06:25;27.20;98.10
35970;DHT22;22448;51.298;6.430;2023-06-26T09:08:53;27.10;97.70
35970;DHT22;22448;51.298;6.430;2023-06-26T09:11:20;26.70;98.50
35970;DHT22;22448;51.298;6.430;2023-06-26T09:13:47;26.60;98.80
35970;DHT22;22448;51.298;6.430;2023-06-26T09:16:14;26.30;98.20
35970;DHT22;22448;51.298;6.430;2023-06-26T09:18:41;26.10;99.50
35970;DHT22;22448;51.298;6.430;2023-06-26T09:21:12;26.20;99.90
35970;DHT22;22448;51.298;6.430;2023-06-26T09:23:42;26.00;98.70
35970;DHT22;22448;51.298;6.430;2023-06-26T09:26:11;26.30;99.20
35970;DHT22;22448;51.298;6.430;2023-06-26T09:28:38;26.30;98.50
35970;DHT22;22448;51.298;6.430;2023-06-26T09:31:07;26.30;98.60
35970;DHT22;22448;51.298;6.430;2023-06-26T09:33:36;26.10;99.30
35970;DHT22;22448;51.298;6.430;2023-06-26T09:36:07;26.20;99.60
35970;DHT22;22448;51.298;6.430;2023-06-26T09:38:36;26.60;99.90
35970;DHT22;22448;51.298;6.430;2023-06-26T09:41:03;27.00;98.60
35970;DHT22;22448;51.298;6.430;2023-06-26T09:43:30;27.50;97.40
35970;DHT22;22448;51.298;6.430;2023-06-26T09:46:02;27.30;96.80
35970;DHT22;22448;51.298;6.430;2023-06-26T09:48:30;26.90;97.40
35970;DHT22;22448;51.298;6.430;2023-06-26T09:51:00;26.90;96.90
35970;DHT22;22448;51.298;6.430;2023-06-26T09:53:42;27.10;98.10
35970;DHT22;22448;51.298;6.430;2023-06-26T09:56:15;27.40;97.10
35970;DHT22;22448;51.298;6.430;2023-06-26T09:58:46;27.70;96.00
35970;DHT22;22448;51.298;6.430;2023-06-26T10:01:13;27.90;95.50
35970;DHT22;22448;51.298;6.430;2023-06-26T10:03:41;28.10;94.90
35970;DHT22;22448;51.298;6.430;2023-06-26T10:06:10;28.00;95.50
35970;DHT22;22448;51.298;6.430;2023-06-26T10:08:39;27.70;94.90
35970;DHT22;22448;51.298;6.430;2023-06-26T10:11:08;27.50;95.00
35970;DHT22;22448;51.298;6.430;2023-06-26T10:13:39;27.40;95.20
35970;DHT22;22448;51.298;6.430;2023-06-26T10:16:10;27.60;95.20
35970;DHT22;22448;51.298;6.430;2023-06-26T10:18:40;27.70;95.20
35970;DHT22;22448;51.298;6.430;2023-06-26T10:21:08;27.90;95.10
35970;DHT22;22448;51.298;6.430;2023-06-26T10:23:39;27.90;93.70
35970;DHT22;22448;51.298;6.430;2023-06-26T10:26:08;27.80;93.10
35970;DHT22;22448;51.298;6.430;2023-06-26T10:28:37;27.90;93.50
35970;DHT22;22448;51.298;6.430;2023-06-26T10:31:06;28.20;93.60
35970;DHT22;22448;51.298;6.430;2023-06-26T10:33:35;28.40;92.40
35970;DHT22;22448;51.298;6.430;2023-06-26T10:36:19;28.30;92.30
35970;DHT22;22448;51.298;6.430;2023-06-26T10:38:55;28.20;91.00
35970;DHT22;22448;51.298;6.430;2023-06-26T10:41:23;28.20;91.20
35970;DHT22;22448;51.298;6.430;2023-06-26T10:44:11;28.30;90.10
35970;DHT22;22448;51.298;6.430;2023-06-26T10:46:48;28.30;89.90
35970;DHT22;22448;51.298;6.430;2023-06-26T10:49:17;28.30;89.90
35970;DHT22;22448;51.298;6.430;2023-06-26T10:51:49;28.20;88.40
35970;DHT22;22448;51.298;6.430;2023-06-26T10:54:18;28.10;86.60
35970;DHT22;22448;51.298;6.430;2023-06-26T10:59:17;28.30;89.40
35970;DHT22;22448;51.298;6.430;2023-06-26T11:01:46;28.40;87.80
35970;DHT22;22448;51.298;6.430;2023-06-26T11:04:36;28.50;87.60
35970;DHT22;22448;51.298;6.430;2023-06-26T11:07:21;28.10;87.00
35970;DHT22;22448;51.298;6.430;2023-06-26T11:10:00;27.50;88.10
35970;DHT22;22448;51.298;6.430;2023-06-26T11:15:11;27.00;89.70
35970;DHT22;22448;51.298;6.430;2023-06-26T11:17:38;26.60;89.80
35970;DHT22;22448;51.298;6.430;2023-06-26T11:20:07;26.30;89.30
35970;DHT22;22448;51.298;6.430;2023-06-26T11:22:40;26.20;89.60
35970;DHT22;22448;51.298;6.430;2023-06-26T11:25:09;26.20;90.10
35970;DHT22;22448;51.298;6.430;2023-06-26T11:27:43;26.40;90.30
35970;DHT22;22448;51.298;6.430;2023-06-26T11:30:12;26.50;90.10
35970;DHT22;22448;51.298;6.430;2023-06-26T11:32:49;26.50;89.10
35970;DHT22;22448;51.298;6.430;2023-06-26T11:35:25;26.20;87.70
35970;DHT22;22448;51.298;6.430;2023-06-26T11:38:01;26.10;89.40
35970;DHT22;22448;51.298;6.430;2023-06-26T11:40:37;26.00;87.80
35970;DHT22;22448;51.298;6.430;2023-06-26T11:43:05;26.10;88.30
35970;DHT22;22448;51.298;6.430;2023-06-26T11:45:32;26.20;86.60
35970;DHT22;22448;51.298;6.430;2023-06-26T11:48:00;26.10;85.60
35970;DHT22;22448;51.298;6.430;2023-06-26T11:50:28;26.20;82.10
35970;DHT22;22448;51.298;6.430;2023-06-26T11:52:56;26.40;83.60
35970;DHT22;22448;51.298;6.430;2023-06-26T11:55:25;26.80;84.60
35970;DHT22;22448;51.298;6.430;2023-06-26T11:57:56;26.90;83.00
35970;DHT22;22448;51.298;6.430;2023-06-26T12:00:23;26.80;84.90
35970;DHT22;22448;51.298;6.430;2023-06-26T12:02:50;26.80;84.40
35970;DHT22;22448;51.298;6.430;2023-06-26T12:05:19;26.90;85.90
35970;DHT22;22448;51.298;6.430;2023-06-26T12:07:47;27.00;84.40
35970;DHT22;22448;51.298;6.430;2023-06-26T12:10:15;27.10;84.20
35970;DHT22;22448;51.298;6.430;2023-06-26T12:12:45;27.00;82.80
35970;DHT22;22448;51.298;6.430;2023-06-26T12:15:15;27.30;86.00
35970;DHT22;22448;51.298;6.430;2023-06-26T12:17:42;27.40;84.80
35970;DHT22;22448;51.298;6.430;2023-06-26T12:20:23;27.30;83.90
35970;DHT22;22448;51.298;6.430;2023-06-26T12:22:52;27.10;81.60
35970;DHT22;22448;51.298;6.430;2023-06-26T12:25:23;26.70;82.40
35970;DHT22;22448;51.298;6.430;2023-06-26T12:27:50;26.50;83.40
35970;DHT22;22448;51.298;6.430;2023-06-26T12:30:17;26.80;84.30
35970;DHT22;22448;51.298;6.430;2023-06-26T12:32:45;27.10;84.90
35970;DHT22;22448;51.298;6.430;2023-06-26T12:35:15;27.10;82.30
35970;DHT22;22448;51.298;6.430;2023-06-26T12:37:43;26.80;83.60
35970;DHT22;22448;51.298;6.430;2023-06-26T12:40:19;26.40;83.60
35970;DHT22;22448;51.298;6.430;2023-06-26T12:43:02;26.40;83.50
35970;DHT22;22448;51.298;6.430;2023-06-26T12:45:37;26.80;84.50
35970;DHT22;22448;51.298;6.430;2023-06-26T12:48:12;26.90;85.10
35970;DHT22;22448;51.298;6.430;2023-06-26T12:50:46;26.70;83.70
35970;DHT22;22448;51.298;6.430;2023-06-26T12:53:14;26.80;85.90
35970;DHT22;22448;51.298;6.430;2023-06-26T12:55:41;26.70;84.70
35970;DHT22;22448;51.298;6.430;2023-06-26T12:58:08;26.50;83.80
35970;DHT22;22448;51.298;6.430;2023-06-26T13:00:38;26.40;82.90
35970;DHT22;22448;51.298;6.430;2023-06-26T13:03:06;26.30;81.70
35970;DHT22;22448;51.298;6.430;2023-06-26T13:05:37;26.40;84.40
35970;DHT22;22448;51.298;6.430;2023-06-26T13:08:04;26.70;85.20
35970;DHT22;22448;51.298;6.430;2023-06-26T13:10:31;27.00;84.10
35970;DHT22;22448;51.298;6.430;2023-06-26T13:12:59;27.10;82.30
35970;DHT22;22448;51.298;6.430;2023-06-26T13:15:31;27.20;83.10
35970;DHT22;22448;51.298;6.430;2023-06-26T13:17:58;27.10;81.80
35970;DHT22;22448;51.298;6.430;2023-06-26T13:20:25;27.00;82.20
35970;DHT22;22448;51.298;6.430;2023-06-26T13:22:52;26.90;82.20
35970;DHT22;22448;51.298;6.430;2023-06-26T13:25:21;27.00;82.40
35970;DHT22;22448;51.298;6.430;2023-06-26T13:27:48;26.80;83.00
35970;DHT22;22448;51.298;6.430;2023-06-26T13:30:16;26.30;83.00
35970;DHT22;22448;51.298;6.430;2023-06-26T13:32:44;26.00;85.20
35970;DHT22;22448;51.298;6.430;2023-06-26T13:35:11;25.90;84.10
35970;DHT22;22448;51.298;6.430;2023-06-26T13:37:38;25.60;84.50
35970;DHT22;22448;51.298;6.430;2023-06-26T13:40:06;25.50;87.20
35970;DHT22;22448;51.298;6.430;2023-06-26T13:42:37;25.60;85.00
35970;DHT22;22448;51.298;6.430;2023-06-26T13:45:05;25.80;85.00
35970;DHT22;22448;51.298;6.430;2023-06-26T13:47:52;26.00;83.70
35970;DHT22;22448;51.298;6.430;2023-06-26T13:50:19;25.90;85.80
35970;DHT22;22448;51.298;6.430;2023-06-26T13:52:46;25.80;83.90
35970;DHT22;22448;51.298;6.430;2023-06-26T13:55:13;25.90;84.20
35970;DHT22;22448;51.298;6.430;2023-06-26T13:57:40;26.10;85.50
35970;DHT22;22448;51.298;6.430;2023-06-26T14:00:09;26.40;84.10
35970;DHT22;22448;51.298;6.430;2023-06-26T14:02:38;26.60;83.80
35970;DHT22;22448;51.298;6.430;2023-06-26T14:05:06;26.60;84.80
35970;DHT22;22448;51.298;6.430;2023-06-26T14:07:32;26.40;81.40
35970;DHT22;22448;51.298;6.430;2023-06-26T14:10:00;26.40;82.50
35970;DHT22;22448;51.298;6.430;2023-06-26T14:12:27;26.60;82.90
35970;DHT22;22448;51.298;6.430;2023-06-26T14:14:54;26.60;82.10
35970;DHT22;22448;51.298;6.430;2023-06-26T14:17:21;26.30;83.90
35970;DHT22;22448;51.298;6.430;2023-06-26T14:19:51;26.00;84.30
35970;DHT22;22448;51.298;6.430;2023-06-26T14:22:18;25.60;83.70
35970;DHT22;22448;51.298;6.430;2023-06-26T14:24:45;25.30;84.40
35970;DHT22;22448;51.298;6.430;2023-06-26T14:27:12;25.30;83.60
35970;DHT22;22448;51.298;6.430;2023-06-26T14:29:39;25.50;84.70
35970;DHT22;22448;51.298;6.430;2023-06-26T14:32:06;25.80;85.00
35970;DHT22;22448;51.298;6.430;2023-06-26T14:34:33;26.20;83.10
35970;DHT22;22448;51.298;6.430;2023-06-26T14:37:00;26.50;81.50
35970;DHT22;22448;51.298;6.430;2023-06-26T14:39:28;26.50;79.50
35970;DHT22;22448;51.298;6.430;2023-06-26T14:41:55;26.20;80.50
35970;DHT22;22448;51.298;6.430;2023-06-26T14:44:22;26.00;81.20
35970;DHT22;22448;51.298;6.430;2023-06-26T14:46:50;25.90;81.20
35970;DHT22;22448;51.298;6.430;2023-06-26T14:49:17;25.80;82.00
35970;DHT22;22448;51.298;6.430;2023-06-26T14:51:46;25.90;83.10
35970;DHT22;22448;51.298;6.430;2023-06-26T14:54:13;26.00;83.00
35970;DHT22;22448;51.298;6.430;2023-06-26T14:56:40;26.00;81.60
35970;DHT22;22448;51.298;6.430;2023-06-26T14:59:07;26.10;84.20
35970;DHT22;22448;51.298;6.430;2023-06-26T15:01:34;26.10;84.20
35970;DHT22;22448;51.298;6.430;2023-06-26T15:04:01;26.10;82.90
35970;DHT22;22448;51.298;6.430;2023-06-26T15:06:29;25.90;81.00
35970;DHT22;22448;51.298;6.430;2023-06-26T15:08:56;25.80;82.10
35970;DHT22;22448;51.298;6.430;2023-06-26T15:11:23;25.80;81.90
35970;DHT22;22448;51.298;6.430;2023-06-26T15:13:50;25.80;82.90
35970;DHT22;22448;51.298;6.430;2023-06-26T15:16:17;25.80;83.20
35970;DHT22;22448;51.298;6.430;2023-06-26T15:18:47;25.60;82.00
35970;DHT22;22448;51.298;6.430;2023-06-26T15:21:14;25.30;83.00
35970;DHT22;22448;51.298;6.430;2023-06-26T15:23:41;25.20;82.70
35970;DHT22;22448;51.298;6.430;2023-06-26T15:26:08;24.70;83.80
35970;DHT22;22448;51.298;6.430;2023-06-26T15:28:35;24.50;84.60
35970;DHT22;22448;51.298;6.430;2023-06-26T15:31:02;24.40;85.50
35970;DHT22;22448;51.298;6.430;2023-06-26T15:33:29;24.40;85.90
35970;DHT22;22448;51.298;6.430;2023-06-26T15:35:56;24.40;85.10
35970;DHT22;22448;51.298;6.430;2023-06-26T15:38:23;24.50;84.00
35970;DHT22;22448;51.298;6.430;2023-06-26T15:40:50;24.60;85.80
35970;DHT22;22448;51.298;6.430;2023-06-26T15:43:17;24.60;85.40
35970;DHT22;22448;51.298;6.430;2023-06-26T15:45:45;24.60;84.30